Flight Track Log - Related Links

Times and Time Zones

All times are in EDT time to prevent confusion due to time zone crossing. See the UAL5900 flight status page for this flight to view local times or setup timezone preferences in your user account.

Time Position Orientation Groundspeed Altitude Reporting Facility
EDT Latitude Longitude Course Direction KTS MPH feet Rate Location/Type
Sun 05:53:25 PM 41.9000 -87.9167 176° South 188 216 3,300  Level Chicago TRACON
Sun 05:55:02 PM 41.8128 -87.9047 174° South 227 261 6,000 2,151 Climbing Chicago Center
Sun 05:56:04 PM 41.7217 -87.8933 175° South 270 311 9,000 2,613 Climbing Chicago Center
Sun 05:57:06 PM 41.6447 -87.8906 178° South 275 316 11,400 2,226 Climbing Chicago Center
Sun 05:58:00 PM 41.4989 -87.7972 176° South  Level Estimated
Sun 05:58:08 PM 41.5686 -87.8856 177° South 278 320 13,600  Level Chicago Center
Sun 05:59:10 PM 41.4869 -87.8817 178° South 285 328 15,500 1,452 Climbing Chicago Center
Sun 06:00:12 PM 41.4000 -87.8786 178° South 306 352 16,600 1,016 Climbing Chicago Center
Sun 06:01:14 PM 41.3064 -87.8883 184° South 332 382 17,600 629 Climbing Chicago Center
Sun 06:02:16 PM 41.2053 -87.8922 182° South 356 410 17,900 629 Climbing Chicago Center
Sun 06:03:18 PM 41.1017 -87.8878 178° South 371 427 18,900 1,065 Climbing Chicago Center
Sun 06:04:20 PM 40.9742 -87.8839 179° South 380 437 20,100 1,016 Climbing Chicago Center
Sun 06:05:22 PM 40.8656 -87.8833 180° South 389 448 21,000 532 Climbing Chicago Center
Sun 06:06:24 PM 40.7517 -87.8794 179° South 403 464 21,200 532 Climbing Chicago Center
Sun 06:07:26 PM 40.6367 -87.8742 178° South 414 476 22,100 919 Climbing Chicago Center
Sun 06:08:28 PM 40.5228 -87.8717 179° South 412 474 23,100 1,016 Climbing Chicago Center
Sun 06:09:30 PM 40.3872 -87.8669 178° South 409 471 24,200 1,016 Climbing Chicago Center
Sun 06:10:32 PM 40.2747 -87.8625 178° South 407 468 25,200 927 Climbing Chicago Center
Sun 06:11:33 PM 40.1656 -87.8572 178° South 407 468 26,100 902 Climbing Chicago Center
Sun 06:12:45 PM 40.0419 -87.8450 176° South 406 467 27,200 980 Climbing Indianapolis Center
Sun 06:14:49 PM 39.8000 -87.7853 169° South 402 463 29,300 1,000 Climbing Indianapolis Center
Sun 06:15:51 PM 39.6919 -87.7589 169° South 398 458 30,300 823 Climbing Indianapolis Center
Sun 06:16:53 PM 39.5811 -87.7336 170° South 399 459 31,000 339 Climbing Indianapolis Center
Sun 06:17:55 PM 39.4636 -87.7092 171° South 419 482 31,000  Level Indianapolis Center
Sun 06:18:57 PM 39.3408 -87.6828 171° South 440 506 31,000  Level Indianapolis Center
Sun 06:19:59 PM 39.2181 -87.6567 171° South 445 512 31,000  Level Indianapolis Center
Sun 06:21:01 PM 39.0758 -87.6247 170° South 431 496 31,000  Level Indianapolis Center
Sun 06:22:03 PM 38.9583 -87.5992 170° South 426 490 31,000  Level Indianapolis Center
Sun 06:23:05 PM 38.8419 -87.5736 170° South 423 487 31,000  Level Indianapolis Center
Sun 06:24:07 PM 38.7247 -87.5481 170° South 426 490 31,000  Level Indianapolis Center
Sun 06:25:09 PM 38.6086 -87.5222 170° South 424 488 31,000  Level Indianapolis Center
Sun 06:26:11 PM 38.4933 -87.4972 170° South 422 486 31,000  Level Indianapolis Center
Sun 06:27:13 PM 38.3544 -87.4678 171° South 423 487 31,000  Level Indianapolis Center
Sun 06:28:15 PM 38.2394 -87.4433 171° South 423 487 31,000  Level Indianapolis Center
Sun 06:29:17 PM 38.1236 -87.4183 170° South 426 490 31,000  Level Indianapolis Center
Sun 06:30:19 PM 38.0064 -87.3942 171° South 428 493 31,000  Level Indianapolis Center
Sun 06:31:21 PM 37.8892 -87.3667 170° South 429 494 31,000 -677 Level Indianapolis Center
Sun 06:32:23 PM 37.7544 -87.3411 171° South 428 493 29,600 -1,645 Descending Indianapolis Center
Sun 06:33:25 PM 37.6372 -87.3161 170° South 423 487 27,600 -1,920 Descending Indianapolis Center
Sun 06:34:28 PM 37.5192 -87.2925 171° South 425 489 25,600 -2,074 Descending Indianapolis Center
Sun 06:34:46 PM 37.4708 -87.2789 167° South 430 495 24,800 -1,923 Descending Memphis Center
Sun 06:35:46 PM 37.3492 -87.2522 170° South 437 503 23,100 -900 Descending Memphis Center
Sun 06:36:46 PM 37.2317 -87.2203 168° South 444 511 23,000 -54 Descending Memphis Center
Sun 06:37:38 PM 37.1331 -87.1931 168° South 426 490 23,000 -226 Level Memphis Center
Sun 06:38:32 PM 37.0197 -87.1586 166° South 433 498 22,600 -1,313 Descending Memphis Center
Sun 06:39:46 PM 36.8814 -87.1200 167° South 433 498 20,200 -1,925 Descending Memphis Center
Sun 06:40:46 PM 36.7822 -87.0775 161° South 400 460 18,300 -1,850 Descending Memphis Center
Sun 06:41:46 PM 36.6975 -87.0264 154° Southeast 353 406 16,500 -1,650 Descending Memphis Center
Sun 06:42:46 PM 36.6083 -86.9708 153° Southeast 348 400 15,000 -1,350 Descending Memphis Center
Sun 06:43:46 PM 36.5322 -86.9247 154° Southeast 342 394 13,800 -1,350 Descending Memphis Center
Sun 06:44:46 PM 36.4514 -86.8742 153° Southeast 337 388 12,300 -1,550 Descending Memphis Center
Sun 06:45:46 PM 36.3772 -86.8283 154° Southeast 314 361 10,700 -1,750 Descending Memphis Center
Sun 06:46:46 PM 36.2989 -86.7828 155° Southeast 292 336 8,800 -1,800 Descending Memphis Center
Sun 06:47:46 PM 36.2292 -86.7525 161° South 272 313 7,100 -1,650 Descending Memphis Center
Sun 06:48:46 PM 36.1631 -86.7783 198° South 250 288 5,500 -1,200 Descending Memphis Center
Sun 06:49:46 PM 36.1033 -86.7992 196° South 237 273 4,700 -900 Descending Memphis Center
Sun 06:50:46 PM 36.0539 -86.8217 200° South 223 257 3,700 -900 Descending Memphis Center
Sun 06:51:46 PM 36.0153 -86.7850 142° Southeast 186 214 2,900 -700 Descending Memphis Center
Sun 06:52:46 PM 36.0364 -86.7225 67° East 162 186 2,300 -700 Descending Memphis Center
Sun 06:53:46 PM 36.0797 -86.7025 20° North 146 168 1,500 -800 Descending Memphis Center
Sun 06:54:46 PM 36.1147 -86.6881 18° North 139 160 700 -450 Descending Memphis Center
Sun 06:55:46 PM 36.1536 -86.6683 22° Northeast 139 160 600 -100 Descending Memphis Center
Sun 06:57:00 PM 36.1167 -86.6667 180° South  Level FlightAware Approximate
Sun 07:04:00 PM 36.1245 -86.6782 180° South  Level Estimated
Sun 07:05:00 PM 36.1245 -86.6782 180° South  Level Estimated
Sun 07:06:00 PM 36.1245 -86.6782 180° South  Level Estimated
Sun 07:07:00 PM 36.1245 -86.6782 180° South  Level Estimated
Sun 07:08:00 PM 36.1245 -86.6782 180° South  Level Estimated
Sun 07:09:00 PM 36.1245 -86.6782 180° South  Level Estimated
Sun 07:10:00 PM 36.1245 -86.6782 180° South  Level Estimated

Login

Don't have an account? Register now (free) for customized features, flight alerts, and more!